Time;durP1;ratioP1;P1;durP2;ratioP2;P2;SDS_P1;SDS_P2;PMS_P1;PMS_P2;Temp;Humidity;BMP_temperature;BMP_pressure;BME280_temperature;BME280_humidity;BME280_pressure;Samples;Min_cycle;Max_cycle;Signal;HPM_P1;HPM_P2
2023/05/23 00:01:49;;;;;;;6.78;4.13;;;;;;;18.03;43.82;100494.94;4969563;28;20059;-55
2023/05/23 00:04:17;;;;;;;7.68;3.75;;;;;;;18.02;43.76;100489.75;4971247;28;20078;-54
2023/05/23 00:06:49;;;;;;;4.63;3.47;;;;;;;18.01;43.89;100498.69;4970564;28;20043;-53
2023/05/23 00:09:16;;;;;;;9.35;3.85;;;;;;;17.98;44.03;100505.16;4969187;28;20061;-52
2023/05/23 00:11:44;;;;;;;9.40;4.03;;;;;;;17.97;43.94;100498.16;4969782;28;20054;-52
2023/05/23 00:14:13;;;;;;;9.30;3.92;;;;;;;17.94;44.03;100499.28;4966664;28;20061;-52
2023/05/23 00:16:42;;;;;;;8.82;3.35;;;;;;;17.94;44.04;100493.13;4970445;28;20063;-50
2023/05/23 00:19:10;;;;;;;8.27;3.60;;;;;;;17.92;43.92;100495.06;4964438;28;20051;-53
2023/05/23 00:21:37;;;;;;;7.32;3.92;;;;;;;17.90;44.16;100492.53;4969216;28;20051;-54
2023/05/23 00:24:05;;;;;;;8.57;3.70;;;;;;;17.89;44.15;100490.88;4970562;28;20043;-52
2023/05/23 00:26:33;;;;;;;6.60;3.40;;;;;;;17.87;44.31;100484.81;4966506;28;20069;-49
2023/05/23 00:29:00;;;;;;;5.60;3.22;;;;;;;17.84;44.60;100482.47;4969122;28;20097;-53
2023/05/23 00:31:27;;;;;;;6.03;3.65;;;;;;;17.81;44.36;100480.06;4966884;28;20073;-50
2023/05/23 00:33:55;;;;;;;7.35;3.78;;;;;;;17.79;44.64;100483.88;4973245;28;20047;-49
2023/05/23 00:36:22;;;;;;;8.82;4.07;;;;;;;17.77;44.42;100477.84;4973200;28;20046;-52
2023/05/23 00:38:49;;;;;;;6.55;3.03;;;;;;;17.75;44.34;100469.16;4971779;28;20062;-52
2023/05/23 00:41:17;;;;;;;6.10;3.38;;;;;;;17.72;44.53;100473.75;4975699;28;20515;-55
2023/05/23 00:43:45;;;;;;;5.30;3.67;;;;;;;17.69;44.82;100473.16;4970272;28;20154;-54
2023/05/23 00:46:13;;;;;;;9.15;3.78;;;;;;;17.64;44.92;100473.59;4971955;28;20510;-56
2023/05/23 00:48:40;;;;;;;8.30;3.72;;;;;;;17.62;44.96;100482.72;4964273;28;20590;-54
2023/05/23 00:51:07;;;;;;;13.05;3.55;;;;;;;17.58;45.28;100470.66;4973372;28;20047;-51
2023/05/23 00:53:35;;;;;;;4.65;3.15;;;;;;;17.52;45.24;100471.22;4971344;28;20063;-52
2023/05/23 00:56:02;;;;;;;7.72;4.00;;;;;;;17.46;45.46;100467.28;4968812;28;20045;-56
2023/05/23 00:58:30;;;;;;;5.78;3.50;;;;;;;17.42;45.49;100460.53;4970765;28;20131;-53
2023/05/23 01:00:58;;;;;;;12.48;3.50;;;;;;;17.36;45.62;100459.28;4970571;28;20065;-53
2023/05/23 01:03:27;;;;;;;7.07;3.75;;;;;;;17.32;45.75;100462.34;4969931;28;20154;-54
2023/05/23 01:05:55;;;;;;;6.22;3.35;;;;;;;17.30;45.84;100451.03;4970344;28;20054;-50
2023/05/23 01:08:22;;;;;;;5.43;3.67;;;;;;;17.29;45.84;100458.16;4965767;28;20047;-52
2023/05/23 01:10:50;;;;;;;7.30;3.65;;;;;;;17.28;45.90;100452.97;4969045;28;20078;-50
2023/05/23 01:13:33;;;;;;;5.13;3.53;;;;;;;17.26;46.18;100450.47;4975536;28;20042;-54
2023/05/23 01:16:08;;;;;;;6.82;3.55;;;;;;;17.25;46.37;100447.94;4964841;28;20050;-55
2023/05/23 01:18:45;;;;;;;6.10;4.10;;;;;;;17.23;46.50;100440.06;4968477;28;20062;-54
2023/05/23 01:21:16;;;;;;;9.25;4.35;;;;;;;17.22;46.44;100435.75;4984153;28;20519;-53
2023/05/23 01:24:04;;;;;;;7.97;4.13;;;;;;;17.24;46.38;100439.09;4958264;28;20073;-52
2023/05/23 01:26:40;;;;;;;9.48;4.45;;;;;;;17.24;46.40;100440.91;4967978;28;20050;-52
2023/05/23 01:29:10;;;;;;;5.85;3.70;;;;;;;17.24;46.31;100433.78;4964337;28;20054;-52
2023/05/23 01:31:45;;;;;;;7.10;3.88;;;;;;;17.24;46.60;100441.75;4966095;28;20489;-53
2023/05/23 01:34:13;;;;;;;7.43;3.78;;;;;;;17.24;46.51;100432.94;4948552;28;20051;-52
2023/05/23 01:36:42;;;;;;;6.82;4.20;;;;;;;17.24;46.51;100428.44;4969900;28;20047;-54
2023/05/23 01:39:11;;;;;;;7.95;3.95;;;;;;;17.24;46.56;100431.13;4972237;28;20141;-54
2023/05/23 01:41:38;;;;;;;6.13;4.05;;;;;;;17.23;46.53;100434.75;4970756;28;20606;-54
2023/05/23 01:44:06;;;;;;;8.20;3.72;;;;;;;17.22;46.78;100425.09;4967051;28;20053;-53
2023/05/23 01:46:34;;;;;;;7.13;4.10;;;;;;;17.22;46.65;100433.09;4963892;28;20604;-51
2023/05/23 01:49:02;;;;;;;9.02;4.45;;;;;;;17.20;46.69;100424.38;4961749;28;20501;-55
2023/05/23 01:51:30;;;;;;;8.75;4.18;;;;;;;17.19;46.77;100420.88;4962473;28;20486;-56
2023/05/23 01:53:57;;;;;;;5.35;3.72;;;;;;;17.19;46.76;100418.22;4983675;28;20062;-54
2023/05/23 01:56:26;;;;;;;5.80;3.78;;;;;;;17.23;46.99;100417.97;4964318;28;20042;-53
2023/05/23 01:58:54;;;;;;;8.00;4.18;;;;;;;17.23;46.92;100417.97;4969093;28;20117;-52
2023/05/23 02:01:21;;;;;;;13.35;4.22;;;;;;;17.21;46.96;100415.44;4968299;28;20059;-53
2023/05/23 02:03:48;;;;;;;8.13;4.28;;;;;;;17.21;47.40;100415.44;4962805;28;20059;-53
2023/05/23 02:06:16;;;;;;;6.97;4.72;;;;;;;17.23;47.10;100420.63;4965511;28;20077;-54
2023/05/23 02:08:43;;;;;;;5.80;3.88;;;;;;;17.21;47.29;100424.25;4966469;28;20069;-53
2023/05/23 02:11:10;;;;;;;10.82;4.75;;;;;;;17.21;47.28;100415.44;4972303;28;20050;-53
2023/05/23 02:13:37;;;;;;;8.30;4.03;;;;;;;17.20;47.26;100417.28;4968834;28;20059;-56
2023/05/23 02:16:04;;;;;;;8.05;3.97;;;;;;;17.18;47.53;100416.56;4967158;28;20083;-54
2023/05/23 02:18:32;;;;;;;6.38;4.40;;;;;;;17.17;47.44;100419.34;4961133;28;20070;-56
2023/05/23 02:20:59;;;;;;;7.78;4.68;;;;;;;17.17;47.29;100424.69;4967329;28;20062;-57
2023/05/23 02:23:27;;;;;;;9.38;4.60;;;;;;;17.15;47.21;100430.13;4963886;28;20643;-57
2023/05/23 02:25:54;;;;;;;10.43;4.00;;;;;;;17.13;47.54;100429.44;4969495;28;20411;-57
2023/05/23 02:28:21;;;;;;;7.70;4.35;;;;;;;17.12;47.43;100438.38;4972456;28;20058;-53
2023/05/23 02:30:48;;;;;;;8.68;4.30;;;;;;;17.11;47.56;100428.75;4971737;28;20054;-55
2023/05/23 02:33:16;;;;;;;8.35;4.22;;;;;;;17.11;47.59;100430.53;4967186;28;20137;-54
2023/05/23 02:35:44;;;;;;;11.45;4.57;;;;;;;17.09;47.66;100428.00;4972548;28;20074;-56
2023/05/23 02:38:11;;;;;;;8.98;3.88;;;;;;;17.09;47.68;100428.00;4966948;28;20647;-57
2023/05/23 02:40:38;;;;;;;6.53;4.28;;;;;;;17.09;47.76;100422.69;4973019;28;20058;-57
2023/05/23 02:43:05;;;;;;;9.10;4.03;;;;;;;17.10;47.97;100426.19;4965408;28;20058;-56
2023/05/23 02:45:33;;;;;;;7.30;4.68;;;;;;;17.09;47.74;100416.53;4965333;28;20527;-56
2023/05/23 02:48:00;;;;;;;8.07;4.55;;;;;;;17.08;47.95;100414.88;4971782;28;20054;-57
2023/05/23 02:50:28;;;;;;;7.10;4.45;;;;;;;17.07;47.90;100406.03;4968856;28;20050;-57
2023/05/23 02:52:55;;;;;;;12.57;4.35;;;;;;;17.06;48.20;100414.16;4967581;28;20051;-55
2023/05/23 02:55:23;;;;;;;10.23;4.70;;;;;;;17.04;48.16;100413.44;4969435;28;20051;-57
2023/05/23 02:57:50;;;;;;;14.52;4.53;;;;;;;17.03;48.32;100409.97;4975469;28;20055;-56
2023/05/23 03:00:17;;;;;;;6.22;4.10;;;;;;;17.03;48.37;100411.78;4963069;28;20066;-56
2023/05/23 03:02:44;;;;;;;9.35;4.70;;;;;;;16.99;48.24;100416.53;4978190;28;20050;-55
2023/05/23 03:05:12;;;;;;;6.20;4.10;;;;;;;17.00;48.30;100414.69;4969234;28;20050;-57
2023/05/23 03:07:39;;;;;;;7.03;4.47;;;;;;;16.99;48.30;100413.03;4969896;28;20519;-52
2023/05/23 03:10:07;;;;;;;17.73;5.50;;;;;;;16.98;48.60;100409.53;4971877;28;20082;-55
2023/05/23 03:12:34;;;;;;;8.65;4.53;;;;;;;16.96;48.60;100404.31;4968573;28;20066;-53
2023/05/23 03:15:02;;;;;;;8.30;4.40;;;;;;;16.96;48.66;100401.66;4968614;28;20050;-51
2023/05/23 03:17:29;;;;;;;11.20;4.50;;;;;;;16.96;48.86;100407.00;4971531;28;20055;-54
2023/05/23 03:19:56;;;;;;;8.18;4.25;;;;;;;16.96;48.89;100416.78;4971375;28;20088;-50
2023/05/23 03:22:23;;;;;;;5.97;4.28;;;;;;;16.96;49.05;100414.13;4963576;28;20047;-55
2023/05/23 03:24:50;;;;;;;6.68;4.25;;;;;;;16.96;48.99;100412.31;4970116;28;20062;-54
2023/05/23 03:27:18;;;;;;;8.27;4.35;;;;;;;16.98;49.27;100404.22;4971122;28;20047;-54
2023/05/23 03:29:46;;;;;;;11.90;4.78;;;;;;;16.99;48.93;100408.53;4968838;28;20074;-53
2023/05/23 03:32:14;;;;;;;5.72;4.25;;;;;;;17.01;49.03;100408.41;4968518;28;20074;-52
2023/05/23 03:34:41;;;;;;;8.32;4.85;;;;;;;17.01;49.19;100406.56;4969817;28;20415;-53
2023/05/23 03:37:08;;;;;;;5.97;4.45;;;;;;;17.03;49.08;100403.81;4966836;28;20119;-55
2023/05/23 03:39:35;;;;;;;8.82;5.25;;;;;;;17.04;49.06;100405.47;4965572;28;20055;-56
2023/05/23 03:42:06;;;;;;;7.30;4.32;;;;;;;17.03;48.99;100404.63;4974107;28;20047;-56
2023/05/23 03:44:33;;;;;;;7.57;4.32;;;;;;;17.04;49.11;100408.97;4974911;28;20054;-56
2023/05/23 03:47:00;;;;;;;10.75;4.97;;;;;;;17.06;49.11;100406.16;4971968;28;20050;-55
2023/05/23 03:49:28;;;;;;;8.23;4.38;;;;;;;17.05;49.34;100392.03;4971194;28;20070;-55
2023/05/23 03:51:55;;;;;;;9.10;4.72;;;;;;;17.03;49.48;100391.34;4971093;28;20055;-51
2023/05/23 03:54:22;;;;;;;8.38;3.97;;;;;;;17.01;49.21;100393.28;4967588;28;20068;-50
2023/05/23 03:56:49;;;;;;;8.23;4.70;;;;;;;17.00;49.49;100396.94;4976240;28;20061;-51
2023/05/23 03:59:17;;;;;;;9.60;4.78;;;;;;;16.99;49.30;100392.59;4973629;28;20066;-50
2023/05/23 04:01:44;;;;;;;7.18;4.47;;;;;;;16.96;49.60;100396.34;4968891;28;20404;-52
2023/05/23 04:04:12;;;;;;;6.78;4.55;;;;;;;16.95;49.60;100393.84;4969454;28;20462;-54
2023/05/23 04:06:39;;;;;;;13.52;4.82;;;;;;;16.94;49.75;100387.69;4967451;28;20047;-55
2023/05/23 04:09:06;;;;;;;9.25;4.78;;;;;;;16.93;49.73;100391.31;4970647;28;20070;-53
2023/05/23 04:11:33;;;;;;;8.80;4.47;;;;;;;16.93;49.67;100390.47;4968266;28;20058;-49
2023/05/23 04:14:00;;;;;;;8.70;4.65;;;;;;;16.92;50.12;100396.75;4972442;28;20057;-52
2023/05/23 04:16:31;;;;;;;6.38;3.78;;;;;;;16.90;50.06;100394.25;4974342;28;20074;-55
2023/05/23 04:18:59;;;;;;;6.25;4.50;;;;;;;16.91;50.15;100387.13;4983251;28;20051;-54
2023/05/23 04:21:26;;;;;;;10.05;4.80;;;;;;;16.90;49.94;100388.94;4967073;28;20699;-52
2023/05/23 04:23:55;;;;;;;12.98;4.63;;;;;;;16.90;50.06;100393.41;4967967;28;20125;-55
2023/05/23 04:26:22;;;;;;;7.28;4.80;;;;;;;16.89;50.39;100389.09;4964150;28;20051;-55
2023/05/23 04:28:53;;;;;;;7.10;4.70;;;;;;;16.90;50.35;100391.59;4969396;28;20059;-54
2023/05/23 04:31:21;;;;;;;10.90;4.72;;;;;;;16.92;50.68;100397.59;4970829;28;20068;-52
2023/05/23 04:33:48;;;;;;;5.93;4.38;;;;;;;16.95;50.68;100407.13;4969032;28;20054;-56
2023/05/23 04:36:15;;;;;;;10.88;5.03;;;;;;;16.97;51.19;100413.16;4972744;28;20092;-55
2023/05/23 04:38:42;;;;;;;13.43;5.50;;;;;;;16.95;51.06;100407.97;4968469;28;20081;-55
2023/05/23 04:41:10;;;;;;;6.75;5.00;;;;;;;16.93;51.00;100396.66;4970558;28;20046;-55
2023/05/23 04:43:41;;;;;;;7.82;4.65;;;;;;;16.98;50.82;100390.91;4970348;28;20525;-53
2023/05/23 04:46:09;;;;;;;7.97;5.25;;;;;;;17.00;50.94;100388.09;4971158;28;20069;-53
2023/05/23 04:48:37;;;;;;;8.75;4.90;;;;;;;16.99;50.96;100381.13;4971910;28;20062;-53
2023/05/23 04:51:05;;;;;;;13.45;5.28;;;;;;;17.01;51.28;100387.97;4974835;28;20054;-53
2023/05/23 04:53:33;;;;;;;18.48;5.30;;;;;;;17.00;51.60;100390.78;4966645;28;20062;-53
2023/05/23 04:56:01;;;;;;;12.38;5.75;;;;;;;16.98;51.77;100393.56;4969961;28;20058;-52
2023/05/23 04:58:28;;;;;;;6.25;4.60;;;;;;;16.96;51.61;100384.88;4960538;28;20047;-52
2023/05/23 05:00:57;;;;;;;13.18;5.00;;;;;;;16.96;51.48;100388.38;4960799;28;20055;-51
2023/05/23 05:03:25;;;;;;;7.72;4.93;;;;;;;16.98;51.40;100382.94;4966884;28;20058;-55
2023/05/23 05:05:52;;;;;;;11.85;5.22;;;;;;;16.96;51.35;100379.56;4967036;28;20090;-55
2023/05/23 05:08:20;;;;;;;18.95;4.97;;;;;;;16.96;51.89;100380.41;4981644;28;20053;-51
2023/05/23 05:10:47;;;;;;;12.82;5.15;;;;;;;16.95;51.74;100384.03;4967434;28;20071;-54
2023/05/23 05:13:14;;;;;;;10.38;5.03;;;;;;;16.97;51.91;100378.56;4967139;28;20057;-55
2023/05/23 05:15:42;;;;;;;13.40;5.18;;;;;;;16.95;52.07;100381.38;4967116;28;20055;-54
2023/05/23 05:18:10;;;;;;;8.32;4.70;;;;;;;16.93;52.03;100379.81;4965667;28;20050;-56
2023/05/23 05:20:37;;;;;;;7.80;4.63;;;;;;;16.92;52.11;100388.78;4966237;28;20054;-51
2023/05/23 05:23:08;;;;;;;7.20;4.57;;;;;;;16.90;52.58;100388.94;4966866;28;20050;-55
2023/05/23 05:25:37;;;;;;;8.48;5.00;;;;;;;16.92;52.34;100394.09;4969687;28;20110;-56
2023/05/23 05:28:04;;;;;;;6.88;4.32;;;;;;;16.89;52.41;100389.91;4970320;28;20039;-54
2023/05/23 05:30:35;;;;;;;8.10;4.95;;;;;;;16.88;52.47;100387.38;4964549;28;20105;-54
2023/05/23 05:33:03;;;;;;;8.77;5.32;;;;;;;16.83;52.10;100382.47;4962200;28;20066;-55
2023/05/23 05:35:31;;;;;;;7.25;4.40;;;;;;;16.83;52.57;100400.25;4965838;28;20058;-54
2023/05/23 05:37:59;;;;;;;6.88;4.35;;;;;;;16.82;52.51;100399.41;4965928;28;20047;-56
2023/05/23 05:40:26;;;;;;;10.85;5.45;;;;;;;16.83;52.41;100401.06;4966100;28;20054;-54
2023/05/23 05:42:53;;;;;;;8.57;4.68;;;;;;;16.85;52.49;100400.97;4970215;28;20063;-56
2023/05/23 05:45:21;;;;;;;7.80;4.45;;;;;;;16.85;52.63;100409.78;4968604;28;20047;-52
2023/05/23 05:47:48;;;;;;;8.25;4.55;;;;;;;16.88;52.55;100411.31;4972801;28;20051;-60
2023/05/23 05:50:15;;;;;;;11.70;5.30;;;;;;;16.91;52.60;100409.22;4966215;28;20050;-51
2023/05/23 05:52:42;;;;;;;9.07;4.57;;;;;;;16.95;52.71;100404.47;4962934;28;20076;-51
2023/05/23 05:55:10;;;;;;;8.60;5.55;;;;;;;16.92;52.66;100402.09;4973109;28;20055;-51
2023/05/23 05:57:38;;;;;;;7.75;4.63;;;;;;;16.94;52.65;100402.81;4970269;28;20511;-58
2023/05/23 06:00:12;;;;;;;9.02;5.28;;;;;;;16.96;52.24;100395.50;4963392;28;20126;-54
2023/05/23 06:02:40;;;;;;;9.38;5.03;;;;;;;17.02;52.10;100402.97;4966009;28;20066;-53
2023/05/23 06:05:11;;;;;;;8.27;5.63;;;;;;;17.09;52.06;100390.78;4966362;28;20583;-56
2023/05/23 06:07:39;;;;;;;7.88;5.45;;;;;;;17.14;52.12;100385.88;4950667;28;20376;-56
2023/05/23 06:10:07;;;;;;;13.48;5.20;;;;;;;17.22;52.13;100379.88;4967544;28;20062;-54
2023/05/23 06:12:34;;;;;;;9.48;5.80;;;;;;;17.29;52.55;100388.13;4966863;28;20512;-53
2023/05/23 06:15:02;;;;;;;10.38;4.47;;;;;;;17.33;52.91;100384.22;4971413;28;20185;-52
2023/05/23 06:17:29;;;;;;;7.15;4.80;;;;;;;17.38;53.17;100373.97;4971843;28;20054;-59
2023/05/23 06:19:56;;;;;;;9.68;5.68;;;;;;;17.43;53.47;100369.09;4970648;28;20054;-53
2023/05/23 06:22:24;;;;;;;11.00;5.65;;;;;;;17.49;53.38;100381.84;4966735;28;20059;-55
2023/05/23 06:24:51;;;;;;;8.32;5.28;;;;;;;17.55;53.41;100378.59;4963126;28;20058;-52
2023/05/23 06:27:19;;;;;;;9.73;5.43;;;;;;;17.61;54.06;100377.22;4969114;28;20056;-54
2023/05/23 06:29:46;;;;;;;12.85;6.15;;;;;;;17.66;54.53;100377.63;4966731;28;20073;-53
2023/05/23 06:32:13;;;;;;;13.88;5.60;;;;;;;17.72;54.42;100374.38;4961568;28;20537;-58
2023/05/23 06:34:40;;;;;;;9.52;6.38;;;;;;;17.78;54.87;100367.69;4969900;28;20053;-55
2023/05/23 06:37:08;;;;;;;15.50;6.15;;;;;;;17.88;53.53;100374.69;4985609;28;20054;-52
2023/05/23 06:39:35;;;;;;;12.52;5.82;;;;;;;17.99;52.87;100376.31;4965205;28;20065;-52
2023/05/23 06:42:03;;;;;;;12.27;5.28;;;;;;;18.13;52.34;100377.69;4968353;28;20074;-56
2023/05/23 06:44:30;;;;;;;13.35;5.60;;;;;;;18.30;51.81;100379.59;4969494;28;20054;-54
2023/05/23 06:46:57;;;;;;;10.63;5.45;;;;;;;18.42;50.91;100374.94;4969708;28;20051;-55
2023/05/23 06:49:25;;;;;;;19.15;5.50;;;;;;;18.59;50.09;100379.47;4972160;28;20047;-56
2023/05/23 06:51:52;;;;;;;13.68;5.43;;;;;;;18.76;49.83;100385.03;4972884;28;20063;-54
2023/05/23 06:54:19;;;;;;;12.80;5.60;;;;;;;18.91;49.44;100380.84;4966497;28;20084;-55
2023/05/23 06:56:46;;;;;;;14.05;5.72;;;;;;;19.06;48.45;100384.69;4963178;28;20070;-56
2023/05/23 06:59:14;;;;;;;14.07;5.38;;;;;;;19.21;48.46;100382.34;4966971;28;20043;-56
2023/05/23 07:01:41;;;;;;;8.60;5.03;;;;;;;19.33;48.30;100389.13;4969720;28;20065;-52
2023/05/23 07:04:08;;;;;;;12.10;5.10;;;;;;;19.41;48.35;100383.88;4969416;28;20097;-52
2023/05/23 07:06:36;;;;;;;14.45;5.35;;;;;;;19.47;48.18;100385.94;4965374;28;20495;-55
2023/05/23 07:09:03;;;;;;;9.82;5.60;;;;;;;19.57;48.01;100385.00;4966683;28;20038;-52
2023/05/23 07:11:30;;;;;;;18.05;5.82;;;;;;;19.71;47.94;100387.97;4964945;28;20065;-54
2023/05/23 07:13:58;;;;;;;15.02;5.13;;;;;;;19.87;47.68;100381.94;4979232;28;20054;-52
2023/05/23 07:16:25;;;;;;;10.27;5.10;;;;;;;19.95;48.08;100381.16;4968667;28;20424;-52
2023/05/23 07:18:52;;;;;;;12.90;6.00;;;;;;;19.96;47.28;100385.50;4970031;28;20054;-54
2023/05/23 07:21:19;;;;;;;11.23;6.57;;;;;;;19.98;46.75;100388.84;4969355;28;20753;-53
2023/05/23 07:23:47;;;;;;;14.32;5.43;;;;;;;19.96;46.38;100389.00;4973988;28;20080;-52
2023/05/23 07:26:14;;;;;;;16.10;5.70;;;;;;;20.00;45.83;100388.72;4967643;28;20053;-54
2023/05/23 07:28:41;;;;;;;14.30;5.97;;;;;;;20.00;46.18;100386.03;4970541;28;20047;-52
2023/05/23 07:31:08;;;;;;;14.93;4.90;;;;;;;20.03;45.92;100385.69;4973647;28;20059;-52
2023/05/23 07:33:36;;;;;;;12.98;6.35;;;;;;;19.98;45.41;100391.50;4975203;28;20058;-54
2023/05/23 07:36:03;;;;;;;11.30;5.50;;;;;;;19.96;45.01;100378.31;4974728;28;20055;-54
2023/05/23 07:38:30;;;;;;;15.55;5.72;;;;;;;20.03;45.30;100381.19;4972539;28;20042;-56
2023/05/23 07:40:57;;;;;;;12.15;5.53;;;;;;;20.00;45.36;100378.00;4969555;28;20503;-54
2023/05/23 07:43:37;;;;;;;13.98;5.20;;;;;;;20.06;45.33;100372.03;4971264;28;20070;-55
2023/05/23 07:46:05;;;;;;;11.93;4.82;;;;;;;20.15;45.86;100374.59;4968520;28;20053;-55
2023/05/23 07:48:32;;;;;;;14.82;5.57;;;;;;;20.28;45.51;100376.00;4972831;28;20077;-55
2023/05/23 07:50:59;;;;;;;11.50;4.97;;;;;;;20.36;44.94;100384.06;4964849;28;20055;-54
2023/05/23 07:53:27;;;;;;;12.52;5.10;;;;;;;20.45;45.10;100389.28;4971604;28;20077;-52
2023/05/23 07:55:54;;;;;;;12.68;4.68;;;;;;;20.33;45.45;100384.38;4971660;28;20059;-54
2023/05/23 07:58:22;;;;;;;12.20;4.63;;;;;;;20.34;44.80;100380.69;4971572;28;20043;-55
2023/05/23 08:00:49;;;;;;;9.48;4.43;;;;;;;20.46;44.96;100385.63;4967344;28;20055;-56
2023/05/23 08:03:19;;;;;;;9.75;4.82;;;;;;;20.27;45.33;100391.22;4972540;28;20052;-56
2023/05/23 08:05:46;;;;;;;10.07;5.45;;;;;;;20.36;45.35;100398.28;4971921;28;20051;-52
2023/05/23 08:08:14;;;;;;;9.30;5.22;;;;;;;20.44;44.76;100398.31;4968411;28;20059;-52
2023/05/23 08:10:41;;;;;;;7.47;4.72;;;;;;;20.67;44.52;100405.81;4970965;28;20051;-50
2023/05/23 08:13:08;;;;;;;8.43;4.63;;;;;;;20.87;44.73;100403.69;4966435;28;20510;-53
2023/05/23 08:15:36;;;;;;;9.13;4.50;;;;;;;21.11;44.34;100397.56;4976576;28;20680;-56
2023/05/23 08:18:03;;;;;;;9.88;4.35;;;;;;;21.33;44.09;100398.81;4968234;28;20055;-52
2023/05/23 08:20:31;;;;;;;14.70;4.95;;;;;;;21.24;43.84;100401.44;4975545;28;20054;-55
2023/05/23 08:22:59;;;;;;;10.27;4.45;;;;;;;21.07;44.61;100398.88;4963416;28;20066;-54
2023/05/23 08:25:31;;;;;;;14.13;5.22;;;;;;;20.92;44.06;100402.19;4971143;28;20054;-51
2023/05/23 08:27:59;;;;;;;5.88;4.18;;;;;;;21.26;43.90;100406.63;4972065;28;20069;-56
2023/05/23 08:30:27;;;;;;;10.00;4.88;;;;;;;21.43;44.30;100410.19;4972925;28;20149;-53
2023/05/23 08:32:55;;;;;;;17.73;4.60;;;;;;;21.55;43.74;100406.19;4970992;28;20073;-56
2023/05/23 08:35:23;;;;;;;16.80;4.43;;;;;;;21.54;43.84;100420.59;4969008;28;20057;-50
2023/05/23 08:37:50;;;;;;;11.77;5.75;;;;;;;21.36;43.66;100426.09;4973771;28;20055;-51
2023/05/23 08:40:20;;;;;;;11.52;5.95;;;;;;;21.30;44.50;100428.53;4973594;28;20053;-49
2023/05/23 08:42:48;;;;;;;11.63;5.25;;;;;;;21.10;44.80;100426.16;4972944;28;20057;-54
2023/05/23 08:45:17;;;;;;;6.60;4.53;;;;;;;20.86;45.69;100434.13;4970649;28;20055;-53
2023/05/23 08:47:45;;;;;;;8.57;5.35;;;;;;;20.67;46.37;100428.03;4969261;28;20138;-52
2023/05/23 08:50:16;;;;;;;14.88;5.15;;;;;;;20.69;46.96;100427.88;4989475;28;20447;-52
2023/05/23 08:52:56;;;;;;;6.80;5.35;;;;;;;20.90;47.39;100430.97;4971617;28;20051;-55
2023/05/23 08:55:27;;;;;;;9.30;5.40;;;;;;;21.04;47.08;100431.34;4972527;28;20860;-53
2023/05/23 08:57:56;;;;;;;10.10;5.03;;;;;;;21.10;46.72;100436.88;4967641;28;20058;-54
2023/05/23 09:00:24;;;;;;;9.73;5.15;;;;;;;20.87;46.94;100431.28;4971928;28;20166;-55
2023/05/23 09:02:53;;;;;;;8.20;4.93;;;;;;;20.80;47.52;100448.13;4971166;28;20066;-55
2023/05/23 09:05:20;;;;;;;7.78;4.93;;;;;;;20.83;48.18;100440.63;4970718;28;20085;-52
2023/05/23 09:07:49;;;;;;;16.52;5.82;;;;;;;21.01;48.31;100439.69;4971320;28;20051;-55
2023/05/23 09:10:20;;;;;;;8.68;4.85;;;;;;;21.49;47.79;100439.84;4967162;28;20138;-54
2023/05/23 09:12:48;;;;;;;7.15;4.72;;;;;;;22.04;46.65;100435.66;4970852;28;20415;-53
2023/05/23 09:15:15;;;;;;;8.55;5.13;;;;;;;22.10;46.25;100434.97;4969734;28;20046;-53
2023/05/23 09:17:43;;;;;;;11.18;5.60;;;;;;;22.20;46.42;100440.19;4966541;28;20074;-53
2023/05/23 09:20:13;;;;;;;23.33;5.28;;;;;;;22.45;46.35;100443.66;4975262;28;20050;-55
2023/05/23 09:22:46;;;;;;;14.32;5.13;;;;;;;22.59;46.30;100442.94;4972543;28;20058;-55
2023/05/23 09:25:13;;;;;;;7.35;4.75;;;;;;;22.61;47.07;100448.13;4975026;28;20432;-57
2023/05/23 09:27:41;;;;;;;10.55;5.47;;;;;;;22.64;47.18;100445.09;5038379;22;20078;-60
2023/05/23 09:30:13;;;;;;;14.30;5.43;;;;;;;22.89;47.19;100451.22;5077466;28;20408;-56
2023/05/23 09:32:41;;;;;;;9.52;5.55;;;;;;;23.05;46.72;100444.94;5075871;28;20070;-59
2023/05/23 09:35:12;;;;;;;14.00;5.40;;;;;;;23.30;46.17;100445.66;5076904;28;20058;-60
2023/05/23 09:37:47;;;;;;;10.00;6.03;;;;;;;23.21;46.28;100456.44;5064454;28;20052;-59
2023/05/23 09:40:15;;;;;;;9.80;5.63;;;;;;;23.06;46.88;100450.16;5062087;28;20049;-60
2023/05/23 09:42:46;;;;;;;11.27;5.60;;;;;;;23.17;47.37;100441.69;5067464;28;20416;-61
2023/05/23 09:45:15;;;;;;;9.45;5.13;;;;;;;23.38;47.80;100443.75;5067295;28;20060;-61
2023/05/23 09:47:50;;;;;;;10.18;5.85;;;;;;;23.55;47.58;100465.13;5056205;28;20379;-59
2023/05/23 09:50:18;;;;;;;;;;;;;;;23.37;48.69;100449.28;5061503;28;20206;-60
2023/05/23 09:52:45;;;;;;;7.50;5.38;;;;;;;23.58;48.20;100444.09;5066112;28;19928;-61
2023/05/23 09:55:13;;;;;;;11.52;5.72;;;;;;;23.57;48.12;100442.44;5067133;28;20057;-62
2023/05/23 09:57:42;;;;;;;10.48;6.30;;;;;;;23.49;48.30;100446.00;5065258;28;20152;-60
2023/05/23 10:00:12;;;;;;;12.20;6.07;;;;;;;22.92;48.92;100457.09;5065677;28;20060;-59
2023/05/23 10:03:06;;;;;;;11.10;5.63;;;;;;;22.84;49.53;100443.69;5053257;28;20125;-58
2023/05/23 10:05:37;;;;;;;6.43;5.82;;;;;;;23.17;48.99;100452.44;5063112;28;20048;-60
2023/05/23 10:08:09;;;;;;;7.13;4.95;;;;;;;23.30;48.73;100451.88;5059728;28;20059;-59
2023/05/23 10:10:56;;;;;;;10.73;5.15;;;;;;;23.44;48.79;100445.72;5057051;28;20048;-57
2023/05/23 10:13:25;;;;;;;11.85;6.38;;;;;;;23.55;48.53;100460.63;5063650;28;20404;-62
2023/05/23 10:15:58;;;;;;;10.80;6.40;;;;;;;23.45;48.76;100450.06;5061078;28;20148;-59
2023/05/23 10:18:28;;;;;;;10.00;5.53;;;;;;;23.30;49.01;100457.22;5058695;28;20068;-60
2023/05/23 10:21:14;;;;;;;11.20;5.75;;;;;;;23.19;49.73;100471.03;5059808;28;20053;-60
2023/05/23 10:23:41;;;;;;;10.63;5.30;;;;;;;22.86;48.80;100457.75;5061902;28;20214;-60
2023/05/23 10:26:09;;;;;;;9.80;5.32;;;;;;;22.99;49.33;100449.19;5059043;28;20056;-58
2023/05/23 10:28:36;;;;;;;8.77;4.35;;;;;;;23.11;49.13;100458.53;5059527;28;20059;-59
2023/05/23 10:31:03;;;;;;;9.95;5.55;;;;;;;23.60;47.99;100452.84;5060519;28;20049;-58
2023/05/23 10:33:35;;;;;;;8.00;4.50;;;;;;;23.88;47.86;100458.53;5057113;28;20049;-60
2023/05/23 10:36:08;;;;;;;6.00;5.13;;;;;;;24.05;47.61;100448.47;5077254;28;20044;-61
2023/05/23 10:38:56;;;;;;;6.80;5.00;;;;;;;24.51;46.64;100456.44;5056703;28;20056;-59
2023/05/23 10:41:38;;;;;;;9.77;5.95;;;;;;;24.48;46.85;100443.34;5055784;28;20052;-60
2023/05/23 10:44:14;;;;;;;8.57;5.32;;;;;;;24.56;47.10;100456.72;5052826;28;20497;-59
2023/05/23 10:47:01;;;;;;;9.23;6.18;;;;;;;24.08;48.20;100450.78;5059430;28;20512;-60
2023/05/23 10:49:45;;;;;;;8.05;5.55;;;;;;;23.70;49.47;100455.31;5061810;28;20053;-61
2023/05/23 10:52:16;;;;;;;12.82;5.70;;;;;;;23.40;50.68;100452.47;5060683;28;20052;-59
2023/05/23 10:54:48;;;;;;;8.10;6.28;;;;;;;22.98;52.37;100458.25;5062217;28;20051;-61
2023/05/23 10:57:16;;;;;;;10.23;7.70;;;;;;;22.64;54.94;100469.25;5069704;28;20152;-62
2023/05/23 10:59:45;;;;;;;15.75;9.05;;;;;;;22.20;57.79;100469.69;5072945;28;20049;-63
2023/05/23 11:02:14;;;;;;;10.13;8.48;;;;;;;22.04;59.33;100475.84;5057006;28;20083;-60
2023/05/23 11:04:42;;;;;;;15.30;9.45;;;;;;;21.65;60.81;100468.47;5061490;28;20064;-58
2023/05/23 11:07:29;;;;;;;10.38;9.02;;;;;;;21.63;62.06;100483.88;5063961;28;20066;-60
2023/05/23 11:10:23;;;;;;;13.88;9.43;;;;;;;21.61;62.84;100477.84;5063043;28;20175;-61
2023/05/23 11:13:05;;;;;;;11.60;9.38;;;;;;;21.78;62.90;100477.88;5064968;28;20064;-60
2023/05/23 11:15:43;;;;;;;11.93;9.43;;;;;;;21.74;62.81;100483.53;5064458;28;20503;-61
2023/05/23 11:18:37;;;;;;;11.60;10.40;;;;;;;21.56;63.50;100482.03;5062710;28;20068;-59
2023/05/23 11:21:05;;;;;;;16.95;12.60;;;;;;;21.46;63.55;100482.19;5064005;28;20397;-61
2023/05/23 11:23:40;;;;;;;12.07;10.10;;;;;;;21.46;64.02;100484.84;5061171;28;20060;-60
2023/05/23 11:26:26;;;;;;;;;;;;;;;21.50;64.36;100491.56;5069041;28;20083;-60
2023/05/23 11:28:57;;;;;;;17.97;12.93;;;;;;;21.25;64.66;100479.91;5069053;28;19967;-59
2023/05/23 11:31:24;;;;;;;15.05;13.25;;;;;;;21.03;65.32;100478.69;5065727;28;20044;-59